JIA5048 KALB-KDCA
Flight info
| Callsign | JIA5048 |
|---|---|
| Flight time | 0h 59m |
| Altitude | 28000 |
| Route | PWL BIZEX Q75 MXE CLIPR3 |
| Aircraft | CRJ9/M-VGDW/C |
Departure
| Time | 2026-04-26 13:14 |
|---|---|
| Airport | Albany International Airport (KALB) |
Arrival
| Time | 2026-04-26 14:13 |
|---|---|
| Airport | Ronald Reagan Washington National Airport (KDCA) |
| Time | Latitude | Longitude | Altitude | Speed | Heading |
|---|---|---|---|---|---|
| 2026-04-26 12:53 | 42.74735 | -73.81056 | 269 ft | 0 kts | 206° |
| 2026-04-26 13:03 | 42.74736 | -73.81056 | 269 ft | 1 kts | 206° |
| 2026-04-26 13:04 | 42.74749 | -73.81047 | 268 ft | 2 kts | 206° |
| 2026-04-26 13:04 | 42.74763 | -73.81039 | 268 ft | 2 kts | 206° |
| 2026-04-26 13:04 | 42.74771 | -73.81033 | 267 ft | 2 kts | 205° |
| 2026-04-26 13:04 | 42.74786 | -73.81029 | 267 ft | 2 kts | 171° |
| 2026-04-26 13:05 | 42.74800 | -73.81036 | 267 ft | 2 kts | 146° |
| 2026-04-26 13:05 | 42.74810 | -73.81052 | 267 ft | 2 kts | 119° |
| 2026-04-26 13:05 | 42.74814 | -73.81068 | 267 ft | 0 kts | 96° |
| 2026-04-26 13:05 | 42.74814 | -73.81078 | 268 ft | 1 kts | 92° |
| 2026-04-26 13:07 | 42.74813 | -73.81060 | 267 ft | 5 kts | 92° |
| 2026-04-26 13:08 | 42.74810 | -73.80975 | 266 ft | 11 kts | 94° |
| 2026-04-26 13:08 | 42.74813 | -73.80862 | 268 ft | 12 kts | 87° |
| 2026-04-26 13:08 | 42.74816 | -73.80740 | 271 ft | 13 kts | 88° |
| 2026-04-26 13:08 | 42.74796 | -73.80627 | 272 ft | 11 kts | 156° |
| 2026-04-26 13:09 | 42.74714 | -73.80617 | 272 ft | 13 kts | 178° |
| 2026-04-26 13:09 | 42.74612 | -73.80613 | 274 ft | 16 kts | 177° |
| 2026-04-26 13:09 | 42.74488 | -73.80608 | 273 ft | 18 kts | 178° |
| 2026-04-26 13:09 | 42.74350 | -73.80601 | 274 ft | 21 kts | 176° |
| 2026-04-26 13:10 | 42.74205 | -73.80595 | 276 ft | 18 kts | 179° |
| 2026-04-26 13:10 | 42.74082 | -73.80592 | 277 ft | 17 kts | 178° |
| 2026-04-26 13:10 | 42.73969 | -73.80586 | 277 ft | 15 kts | 178° |
| 2026-04-26 13:10 | 42.73866 | -73.80581 | 277 ft | 14 kts | 177° |
| 2026-04-26 13:11 | 42.73775 | -73.80577 | 279 ft | 11 kts | 176° |
| 2026-04-26 13:11 | 42.73736 | -73.80550 | 280 ft | 0 kts | 121° |
| 2026-04-26 13:12 | 42.73733 | -73.80544 | 280 ft | 1 kts | 111° |
| 2026-04-26 13:12 | 42.73729 | -73.80512 | 281 ft | 4 kts | 94° |
| 2026-04-26 13:12 | 42.73742 | -73.80452 | 281 ft | 9 kts | 41° |
| 2026-04-26 13:13 | 42.73826 | -73.80431 | 280 ft | 20 kts | 358° |
| 2026-04-26 13:13 | 42.74241 | -73.80447 | 278 ft | 99 kts | 359° |
| 2026-04-26 13:13 | 42.75153 | -73.80477 | 322 ft | 155 kts | 358° |
| 2026-04-26 13:13 | 42.76341 | -73.80538 | 749 ft | 181 kts | 358° |
| 2026-04-26 13:14 | 42.77613 | -73.81033 | 1104 ft | 215 kts | 327° |
| 2026-04-26 13:14 | 42.78664 | -73.82658 | 1314 ft | 240 kts | 294° |
| 2026-04-26 13:14 | 42.78782 | -73.84918 | 1372 ft | 247 kts | 253° |
| 2026-04-26 13:14 | 42.77804 | -73.86741 | 1766 ft | 239 kts | 213° |
| 2026-04-26 13:15 | 42.76263 | -73.87276 | 2123 ft | 230 kts | 171° |
| 2026-04-26 13:15 | 42.74835 | -73.86456 | 2501 ft | 219 kts | 146° |
| 2026-04-26 13:15 | 42.73555 | -73.85384 | 2873 ft | 213 kts | 146° |
| 2026-04-26 13:15 | 42.72312 | -73.84344 | 3222 ft | 207 kts | 145° |
| 2026-04-26 13:16 | 42.71084 | -73.83313 | 3482 ft | 207 kts | 145° |
| 2026-04-26 13:16 | 42.69840 | -73.82266 | 3690 ft | 224 kts | 145° |
| 2026-04-26 13:16 | 42.68381 | -73.81027 | 3984 ft | 267 kts | 145° |
| 2026-04-26 13:16 | 42.66709 | -73.79613 | 4430 ft | 304 kts | 146° |
| 2026-04-26 13:17 | 42.62948 | -73.76448 | 5525 ft | 324 kts | 146° |
| 2026-04-26 13:17 | 42.61012 | -73.74826 | 5951 ft | 325 kts | 146° |
| 2026-04-26 13:18 | 42.57156 | -73.71592 | 6756 ft | 328 kts | 146° |
| 2026-04-26 13:18 | 42.55220 | -73.69968 | 7152 ft | 329 kts | 146° |
| 2026-04-26 13:18 | 42.51315 | -73.66692 | 7938 ft | 333 kts | 146° |
| 2026-04-26 13:19 | 42.49354 | -73.65050 | 8337 ft | 333 kts | 146° |
| 2026-04-26 13:19 | 42.47272 | -73.63666 | 8678 ft | 338 kts | 163° |
| 2026-04-26 13:19 | 42.44906 | -73.63678 | 9034 ft | 341 kts | 193° |
| 2026-04-26 13:19 | 42.42700 | -73.64758 | 9476 ft | 340 kts | 200° |
| 2026-04-26 13:20 | 42.40484 | -73.65930 | 9883 ft | 340 kts | 201° |
| 2026-04-26 13:20 | 42.38290 | -73.67097 | 10286 ft | 340 kts | 201° |
| 2026-04-26 13:20 | 42.36077 | -73.68273 | 10679 ft | 340 kts | 201° |
| 2026-04-26 13:20 | 42.33891 | -73.69433 | 11071 ft | 340 kts | 201° |
| 2026-04-26 13:21 | 42.31705 | -73.70591 | 11456 ft | 339 kts | 202° |
| 2026-04-26 13:21 | 42.29487 | -73.71765 | 11854 ft | 339 kts | 202° |
| 2026-04-26 13:21 | 42.27316 | -73.72913 | 12245 ft | 338 kts | 202° |
| 2026-04-26 13:21 | 42.25141 | -73.74062 | 12638 ft | 336 kts | 202° |
| 2026-04-26 13:22 | 42.22958 | -73.75214 | 13017 ft | 335 kts | 202° |
| 2026-04-26 13:22 | 42.20788 | -73.76360 | 13392 ft | 334 kts | 202° |
| 2026-04-26 13:22 | 42.18638 | -73.77492 | 13766 ft | 333 kts | 203° |
| 2026-04-26 13:22 | 42.16489 | -73.78622 | 14139 ft | 331 kts | 203° |
| 2026-04-26 13:23 | 42.14339 | -73.79752 | 14515 ft | 330 kts | 203° |
| 2026-04-26 13:23 | 42.12218 | -73.80864 | 14883 ft | 328 kts | 203° |
| 2026-04-26 13:23 | 42.10083 | -73.81985 | 15269 ft | 327 kts | 204° |
| 2026-04-26 13:23 | 42.07989 | -73.83080 | 15643 ft | 326 kts | 204° |
| 2026-04-26 13:24 | 42.05916 | -73.84312 | 15997 ft | 321 kts | 217° |
| 2026-04-26 13:24 | 42.04093 | -73.85942 | 16354 ft | 322 kts | 206° |
| 2026-04-26 13:24 | 42.01870 | -73.86375 | 16709 ft | 325 kts | 174° |
| 2026-04-26 13:24 | 41.99642 | -73.85848 | 17153 ft | 326 kts | 169° |
| 2026-04-26 13:25 | 41.97389 | -73.85252 | 17571 ft | 342 kts | 169° |
| 2026-04-26 13:25 | 41.95034 | -73.84452 | 18020 ft | 358 kts | 164° |
| 2026-04-26 13:25 | 41.92583 | -73.83510 | 18494 ft | 373 kts | 165° |
| 2026-04-26 13:25 | 41.90033 | -73.82510 | 18997 ft | 387 kts | 164° |
| 2026-04-26 13:26 | 41.87447 | -73.81484 | 19481 ft | 401 kts | 165° |
| 2026-04-26 13:26 | 41.84726 | -73.80388 | 19980 ft | 414 kts | 164° |
| 2026-04-26 13:26 | 41.81917 | -73.79250 | 20467 ft | 428 kts | 164° |
| 2026-04-26 13:26 | 41.79034 | -73.78072 | 20955 ft | 439 kts | 165° |
| 2026-04-26 13:27 | 41.76126 | -73.76875 | 21417 ft | 438 kts | 164° |
| 2026-04-26 13:27 | 41.73190 | -73.75664 | 21795 ft | 441 kts | 164° |
| 2026-04-26 13:27 | 41.70258 | -73.74446 | 22435 ft | 447 kts | 165° |
| 2026-04-26 13:27 | 41.67294 | -73.73203 | 23264 ft | 450 kts | 165° |
| 2026-04-26 13:28 | 41.64274 | -73.71912 | 23744 ft | 460 kts | 162° |
| 2026-04-26 13:28 | 41.61203 | -73.70641 | 24042 ft | 463 kts | 163° |
| 2026-04-26 13:28 | 41.58181 | -73.69331 | 25246 ft | 455 kts | 165° |
| 2026-04-26 13:28 | 41.55149 | -73.68002 | 25853 ft | 461 kts | 164° |
| 2026-04-26 13:29 | 41.52079 | -73.66657 | 26443 ft | 466 kts | 164° |
| 2026-04-26 13:29 | 41.50032 | -73.65754 | 26840 ft | 467 kts | 165° |
| 2026-04-26 13:29 | 41.45929 | -73.63917 | 27518 ft | 471 kts | 165° |
| 2026-04-26 13:29 | 41.42815 | -73.62510 | 27931 ft | 473 kts | 164° |
| 2026-04-26 13:30 | 41.39691 | -73.61087 | 28165 ft | 478 kts | 164° |
| 2026-04-26 13:30 | 41.33531 | -73.58276 | 28162 ft | 454 kts | 164° |
| 2026-04-26 13:30 | 41.30593 | -73.56909 | 28131 ft | 443 kts | 164° |
| 2026-04-26 13:31 | 41.27633 | -73.55931 | 28063 ft | 425 kts | 180° |
| 2026-04-26 13:31 | 41.24803 | -73.56438 | 28103 ft | 399 kts | 204° |
| 2026-04-26 13:31 | 41.22522 | -73.58250 | 28122 ft | 375 kts | 227° |
| 2026-04-26 13:31 | 41.21106 | -73.60983 | 28116 ft | 355 kts | 251° |
| 2026-04-26 13:32 | 41.20607 | -73.64114 | 28166 ft | 341 kts | 264° |
| 2026-04-26 13:32 | 41.19517 | -73.70314 | 28157 ft | 363 kts | 249° |
| 2026-04-26 13:32 | 41.18321 | -73.73375 | 28190 ft | 384 kts | 243° |
| 2026-04-26 13:33 | 41.16845 | -73.76434 | 28196 ft | 404 kts | 239° |
| 2026-04-26 13:33 | 41.15202 | -73.79507 | 28207 ft | 421 kts | 237° |
| 2026-04-26 13:33 | 41.13420 | -73.82652 | 28167 ft | 434 kts | 236° |
| 2026-04-26 13:34 | 41.09646 | -73.89092 | 28150 ft | 448 kts | 235° |
| 2026-04-26 13:34 | 41.05793 | -73.95570 | 28158 ft | 453 kts | 235° |
| 2026-04-26 13:35 | 41.01865 | -74.02142 | 28152 ft | 455 kts | 235° |
| 2026-04-26 13:35 | 40.97923 | -74.08731 | 28156 ft | 456 kts | 235° |
| 2026-04-26 13:36 | 40.93973 | -74.15318 | 28154 ft | 454 kts | 235° |
| 2026-04-26 13:36 | 40.90038 | -74.21864 | 28161 ft | 447 kts | 235° |
| 2026-04-26 13:37 | 40.86187 | -74.28258 | 28154 ft | 444 kts | 235° |
| 2026-04-26 13:37 | 40.82307 | -74.34691 | 28135 ft | 448 kts | 235° |
| 2026-04-26 13:38 | 40.78368 | -74.41201 | 28139 ft | 452 kts | 235° |
| 2026-04-26 13:38 | 40.74450 | -74.47665 | 28145 ft | 454 kts | 235° |
| 2026-04-26 13:39 | 40.70469 | -74.54221 | 28135 ft | 455 kts | 236° |
| 2026-04-26 13:39 | 40.66486 | -74.60766 | 28133 ft | 454 kts | 235° |
| 2026-04-26 13:40 | 40.62534 | -74.67242 | 28140 ft | 455 kts | 235° |
| 2026-04-26 13:40 | 40.58560 | -74.73745 | 28134 ft | 455 kts | 234° |
| 2026-04-26 13:41 | 40.54256 | -74.79919 | 28141 ft | 457 kts | 231° |
| 2026-04-26 13:41 | 40.49928 | -74.86025 | 28136 ft | 457 kts | 231° |
| 2026-04-26 13:42 | 40.45602 | -74.92130 | 28126 ft | 457 kts | 231° |
| 2026-04-26 13:42 | 40.43424 | -74.95200 | 27983 ft | 457 kts | 231° |
| 2026-04-26 13:42 | 40.41272 | -74.98227 | 27642 ft | 453 kts | 231° |
| 2026-04-26 13:42 | 40.39120 | -75.01249 | 27318 ft | 451 kts | 231° |
| 2026-04-26 13:43 | 40.36961 | -75.04288 | 26978 ft | 451 kts | 231° |
| 2026-04-26 13:43 | 40.34832 | -75.07276 | 26666 ft | 451 kts | 231° |
| 2026-04-26 13:43 | 40.32666 | -75.10312 | 26357 ft | 451 kts | 231° |
| 2026-04-26 13:43 | 40.30528 | -75.13311 | 25982 ft | 451 kts | 231° |
| 2026-04-26 13:44 | 40.28377 | -75.16318 | 25634 ft | 441 kts | 231° |
| 2026-04-26 13:44 | 40.26318 | -75.19196 | 25274 ft | 433 kts | 231° |
| 2026-04-26 13:44 | 40.24275 | -75.22051 | 24880 ft | 424 kts | 231° |
| 2026-04-26 13:44 | 40.22271 | -75.24847 | 24405 ft | 416 kts | 231° |
| 2026-04-26 13:45 | 40.20309 | -75.27586 | 23979 ft | 408 kts | 232° |
| 2026-04-26 13:45 | 40.18377 | -75.30277 | 23559 ft | 400 kts | 231° |
| 2026-04-26 13:45 | 40.16479 | -75.32920 | 23132 ft | 393 kts | 232° |
| 2026-04-26 13:45 | 40.14632 | -75.35488 | 22718 ft | 386 kts | 232° |
| 2026-04-26 13:46 | 40.12818 | -75.38008 | 22301 ft | 380 kts | 232° |
| 2026-04-26 13:46 | 40.10972 | -75.40573 | 21495 ft | 386 kts | 232° |
| 2026-04-26 13:46 | 40.09157 | -75.43094 | 20666 ft | 392 kts | 232° |
| 2026-04-26 13:46 | 40.07253 | -75.45738 | 19833 ft | 396 kts | 232° |
| 2026-04-26 13:47 | 40.05354 | -75.48366 | 19034 ft | 400 kts | 232° |
| 2026-04-26 13:47 | 40.03246 | -75.50696 | 18185 ft | 413 kts | 215° |
| 2026-04-26 13:47 | 40.00753 | -75.52628 | 17388 ft | 411 kts | 222° |
| 2026-04-26 13:47 | 39.98672 | -75.55183 | 16610 ft | 407 kts | 232° |
| 2026-04-26 13:48 | 39.96864 | -75.57973 | 15871 ft | 405 kts | 237° |
| 2026-04-26 13:48 | 39.95180 | -75.60873 | 15000 ft | 397 kts | 239° |
| 2026-04-26 13:48 | 39.93584 | -75.63788 | 14552 ft | 389 kts | 240° |
| 2026-04-26 13:48 | 39.92058 | -75.66647 | 14169 ft | 382 kts | 240° |
| 2026-04-26 13:49 | 39.90561 | -75.69486 | 13851 ft | 372 kts | 240° |
| 2026-04-26 13:49 | 39.89125 | -75.72231 | 13622 ft | 361 kts | 240° |
| 2026-04-26 13:49 | 39.87740 | -75.74884 | 13362 ft | 352 kts | 240° |
| 2026-04-26 13:49 | 39.86385 | -75.77482 | 13098 ft | 343 kts | 240° |
| 2026-04-26 13:50 | 39.85064 | -75.80015 | 12830 ft | 335 kts | 240° |
| 2026-04-26 13:50 | 39.83757 | -75.82519 | 12592 ft | 326 kts | 240° |
| 2026-04-26 13:50 | 39.82492 | -75.84938 | 12421 ft | 315 kts | 240° |
| 2026-04-26 13:50 | 39.81280 | -75.87257 | 12263 ft | 305 kts | 240° |
| 2026-04-26 13:51 | 39.80107 | -75.89497 | 12136 ft | 294 kts | 240° |
| 2026-04-26 13:51 | 39.78973 | -75.91663 | 12001 ft | 284 kts | 240° |
| 2026-04-26 13:51 | 39.77890 | -75.93729 | 11942 ft | 271 kts | 241° |
| 2026-04-26 13:51 | 39.76852 | -75.95704 | 11943 ft | 256 kts | 241° |
| 2026-04-26 13:52 | 39.75880 | -75.97555 | 11931 ft | 240 kts | 242° |
| 2026-04-26 13:52 | 39.74976 | -75.99274 | 11925 ft | 224 kts | 242° |
| 2026-04-26 13:52 | 39.74121 | -76.00894 | 11899 ft | 208 kts | 243° |
| 2026-04-26 13:52 | 39.73259 | -76.02353 | 11539 ft | 218 kts | 217° |
| 2026-04-26 13:53 | 39.71546 | -76.02711 | 10198 ft | 299 kts | 172° |
| 2026-04-26 13:53 | 39.69718 | -76.03262 | 11398 ft | 251 kts | 216° |
| 2026-04-26 13:53 | 39.68548 | -76.04668 | 12097 ft | 230 kts | 248° |
| 2026-04-26 13:53 | 39.68132 | -76.06632 | 12014 ft | 231 kts | 263° |
| 2026-04-26 13:54 | 39.67494 | -76.08627 | 12039 ft | 248 kts | 250° |
| 2026-04-26 13:54 | 39.66687 | -76.10796 | 12077 ft | 284 kts | 250° |
| 2026-04-26 13:54 | 39.65778 | -76.13245 | 12118 ft | 322 kts | 249° |
| 2026-04-26 13:55 | 39.63639 | -76.18971 | 12075 ft | 369 kts | 248° |
| 2026-04-26 13:55 | 39.62868 | -76.21015 | 12021 ft | 377 kts | 248° |
| 2026-04-26 13:55 | 39.59630 | -76.27946 | 11996 ft | 402 kts | 230° |
| 2026-04-26 13:56 | 39.57591 | -76.30415 | 12039 ft | 408 kts | 223° |
| 2026-04-26 13:56 | 39.55380 | -76.32679 | 12023 ft | 397 kts | 220° |
| 2026-04-26 13:56 | 39.53167 | -76.34769 | 11965 ft | 386 kts | 218° |
| 2026-04-26 13:56 | 39.51036 | -76.36723 | 11970 ft | 373 kts | 218° |
| 2026-04-26 13:57 | 39.48935 | -76.38601 | 11953 ft | 362 kts | 216° |
| 2026-04-26 13:57 | 39.46854 | -76.40408 | 11957 ft | 351 kts | 217° |
| 2026-04-26 13:57 | 39.44857 | -76.42141 | 11957 ft | 340 kts | 217° |
| 2026-04-26 13:57 | 39.42916 | -76.43824 | 11960 ft | 330 kts | 217° |
| 2026-04-26 13:58 | 39.41021 | -76.45468 | 11759 ft | 331 kts | 217° |
| 2026-04-26 13:58 | 39.39074 | -76.47160 | 11468 ft | 339 kts | 217° |
| 2026-04-26 13:58 | 39.37141 | -76.48837 | 11224 ft | 346 kts | 216° |
| 2026-04-26 13:58 | 39.35115 | -76.50590 | 10973 ft | 352 kts | 216° |
| 2026-04-26 13:59 | 39.33046 | -76.52378 | 10748 ft | 357 kts | 216° |
| 2026-04-26 13:59 | 39.30936 | -76.54201 | 10569 ft | 363 kts | 216° |
| 2026-04-26 13:59 | 39.28830 | -76.56020 | 10454 ft | 376 kts | 216° |
| 2026-04-26 14:00 | 39.22399 | -76.61562 | 10197 ft | 357 kts | 216° |
| 2026-04-26 14:00 | 39.20333 | -76.63341 | 10091 ft | 349 kts | 216° |
| 2026-04-26 14:00 | 39.18989 | -76.64500 | 9982 ft | 345 kts | 216° |
| 2026-04-26 14:01 | 39.16441 | -76.66870 | 9727 ft | 330 kts | 224° |
| 2026-04-26 14:01 | 39.14788 | -76.68852 | 9539 ft | 320 kts | 225° |
| 2026-04-26 14:01 | 39.13170 | -76.70778 | 9335 ft | 312 kts | 225° |
| 2026-04-26 14:01 | 39.11588 | -76.72653 | 9130 ft | 304 kts | 225° |
| 2026-04-26 14:02 | 39.10052 | -76.74475 | 8879 ft | 299 kts | 225° |
| 2026-04-26 14:02 | 39.08538 | -76.76269 | 8609 ft | 294 kts | 225° |
| 2026-04-26 14:02 | 39.07006 | -76.78084 | 8246 ft | 294 kts | 225° |
| 2026-04-26 14:02 | 39.05518 | -76.79846 | 7853 ft | 294 kts | 225° |
| 2026-04-26 14:03 | 39.04017 | -76.81620 | 7465 ft | 295 kts | 225° |
| 2026-04-26 14:03 | 39.02490 | -76.83426 | 7069 ft | 294 kts | 224° |
| 2026-04-26 14:03 | 39.00965 | -76.85228 | 6665 ft | 294 kts | 224° |
| 2026-04-26 14:03 | 38.99466 | -76.86997 | 6266 ft | 294 kts | 224° |
| 2026-04-26 14:04 | 38.97970 | -76.88764 | 5861 ft | 294 kts | 224° |
| 2026-04-26 14:04 | 38.96434 | -76.90500 | 5453 ft | 294 kts | 220° |
| 2026-04-26 14:04 | 38.94838 | -76.92163 | 5048 ft | 294 kts | 220° |
| 2026-04-26 14:04 | 38.93180 | -76.93658 | 4643 ft | 294 kts | 202° |
| 2026-04-26 14:05 | 38.91194 | -76.94089 | 4263 ft | 289 kts | 179° |
| 2026-04-26 14:05 | 38.89172 | -76.94139 | 3926 ft | 287 kts | 179° |
| 2026-04-26 14:05 | 38.87225 | -76.94191 | 3679 ft | 281 kts | 179° |
| 2026-04-26 14:05 | 38.85275 | -76.94248 | 3481 ft | 274 kts | 179° |
| 2026-04-26 14:06 | 38.83380 | -76.94305 | 3320 ft | 266 kts | 179° |
| 2026-04-26 14:06 | 38.81567 | -76.94360 | 3146 ft | 252 kts | 179° |
| 2026-04-26 14:06 | 38.79827 | -76.94413 | 2946 ft | 239 kts | 178° |
| 2026-04-26 14:06 | 38.78193 | -76.94461 | 2752 ft | 227 kts | 178° |
| 2026-04-26 14:07 | 38.76640 | -76.94354 | 2555 ft | 216 kts | 172° |
| 2026-04-26 14:07 | 38.75180 | -76.94205 | 2368 ft | 206 kts | 172° |
| 2026-04-26 14:07 | 38.73761 | -76.94067 | 2205 ft | 196 kts | 172° |
| 2026-04-26 14:07 | 38.72447 | -76.93937 | 2069 ft | 185 kts | 172° |
| 2026-04-26 14:08 | 38.71176 | -76.93840 | 1916 ft | 175 kts | 180° |
| 2026-04-26 14:08 | 38.70101 | -76.94420 | 1693 ft | 171 kts | 224° |
| 2026-04-26 14:08 | 38.69409 | -76.95697 | 1369 ft | 183 kts | 253° |
| 2026-04-26 14:08 | 38.69149 | -76.97309 | 2255 ft | 170 kts | 276° |
| 2026-04-26 14:09 | 38.69247 | -76.98646 | 2954 ft | 170 kts | 289° |
| 2026-04-26 14:09 | 38.69681 | -77.00234 | 3521 ft | 179 kts | 303° |
| 2026-04-26 14:09 | 38.70179 | -77.01206 | 4844 ft | 126 kts | 326° |
| 2026-04-26 14:09 | 38.71052 | -77.01987 | 4674 ft | 182 kts | 341° |
| 2026-04-26 14:10 | 38.72415 | -77.02340 | 4340 ft | 221 kts | 354° |
| 2026-04-26 14:10 | 38.73947 | -77.02629 | 2928 ft | 232 kts | 355° |
| 2026-04-26 14:10 | 38.75451 | -77.02925 | 1953 ft | 207 kts | 353° |
| 2026-04-26 14:10 | 38.76791 | -77.03068 | 1414 ft | 179 kts | 359° |
| 2026-04-26 14:11 | 38.78925 | -77.03268 | 968 ft | 139 kts | 358° |
| 2026-04-26 14:11 | 38.79902 | -77.03344 | 748 ft | 140 kts | 360° |
| 2026-04-26 14:11 | 38.80891 | -77.03382 | 713 ft | 143 kts | 359° |
| 2026-04-26 14:12 | 38.81864 | -77.03458 | 505 ft | 140 kts | 358° |
| 2026-04-26 14:12 | 38.82799 | -77.03530 | 270 ft | 129 kts | 358° |
| 2026-04-26 14:12 | 38.83704 | -77.03635 | 127 ft | 127 kts | 355° |
| 2026-04-26 14:12 | 38.84520 | -77.03715 | 10 ft | 108 kts | 354° |
| 2026-04-26 14:13 | 38.85256 | -77.03854 | 14 ft | 13 kts | 283° |
| 2026-04-26 14:13 | 38.85266 | -77.03899 | 15 ft | 0 kts | 297° |
| 2026-04-26 14:14 | 38.85276 | -77.03915 | 15 ft | 4 kts | 321° |
| 2026-04-26 14:15 | 38.85319 | -77.03941 | 15 ft | 8 kts | 317° |
| 2026-04-26 14:15 | 38.85325 | -77.03951 | 15 ft | 0 kts | 298° |
| 2026-04-26 14:16 | 38.85332 | -77.03967 | 15 ft | 4 kts | 300° |
| 2026-04-26 14:16 | 38.85374 | -77.03996 | 15 ft | 10 kts | 353° |
| 2026-04-26 14:16 | 38.85468 | -77.04009 | 16 ft | 15 kts | 355° |
| 2026-04-26 14:17 | 38.85574 | -77.04035 | 15 ft | 15 kts | 352° |
| 2026-04-26 14:17 | 38.85675 | -77.04057 | 13 ft | 14 kts | 329° |
| 2026-04-26 14:17 | 38.85751 | -77.04127 | 13 ft | 12 kts | 323° |
| 2026-04-26 14:17 | 38.85776 | -77.04164 | 13 ft | 2 kts | 259° |
| 2026-04-26 14:18 | 38.85774 | -77.04177 | 14 ft | 2 kts | 259° |
| 2026-04-26 14:18 | 38.85784 | -77.04264 | 15 ft | 5 kts | 287° |
| 2026-04-26 14:18 | 38.85785 | -77.04268 | 15 ft | 0 kts | 287° |